CJU5 weather

Minnedosa Airport
Minnedosa, Manitoba, Canada

Public forecast

Using degrees Celsius for public forecast. Weather courtesy of forecast.io.

Closest aviation weather report (METAR) to Minnedosa Airport

Closest report is Brandon Municipal Airport, 22.9 nm (42.4 km) SSW. Retrieved 2019/11/13 21:23 UTC (12 minutes ago):

CYBR 132123Z 29010KT 15SM FEW025 M07/M13 A3004 RMK SC1 SLP207

Closest aviation forecast (TAF) to Minnedosa Airport

Closest forecast is Brandon Municipal Airport, 22.9 nm (42.4 km) SSW. Retrieved 2019/11/13 18:54 UTC (3 hours ago):

TAF TAF CYBR 131750Z 1318/1406 32010KT P6SM BKN025 TEMPO 1318/1403 5SM -SN BKN020 BECMG 1401/1403 28008KT FM140300 28008KT P6SM FEW030 TEMPO 1403/1406 3SM BR RMK NXT FCST BY 140000Z